createdAt,value
2023-02-06T00:03:49.575Z,29.5
2023-02-06T00:08:49.294Z,32.4
2023-02-06T00:13:48.998Z,27.5
2023-02-06T00:18:48.641Z,32.3
2023-02-06T00:23:48.432Z,30.8
2023-02-06T00:28:48.055Z,28.0
2023-02-06T00:33:47.706Z,27.8
2023-02-06T00:38:47.434Z,22.3
2023-02-06T00:43:47.145Z,20.9
2023-02-06T00:48:46.888Z,18.2
2023-02-06T00:53:50.180Z,24.3
2023-02-06T00:58:46.295Z,22.1
2023-02-06T01:03:45.981Z,29.8
2023-02-06T01:08:45.700Z,32.4
2023-02-06T01:13:45.429Z,26.3
2023-02-06T01:18:45.139Z,27.9
2023-02-06T01:23:44.863Z,26.6
2023-02-06T01:28:44.573Z,25.6
2023-02-06T01:33:44.289Z,26.5
2023-02-06T01:38:44.034Z,25.1
2023-02-06T01:43:43.736Z,22.7
2023-02-06T01:48:46.002Z,23.7
2023-02-06T01:58:42.980Z,23.5
2023-02-06T02:03:42.669Z,21.0
2023-02-06T02:13:42.119Z,20.6
2023-02-06T02:18:41.811Z,19.1
2023-02-06T02:23:41.512Z,18.7
2023-02-06T02:28:41.218Z,18.5
2023-02-06T02:33:40.949Z,18.0
2023-02-06T02:38:40.644Z,17.5
2023-02-06T02:48:40.232Z,15.6
2023-02-06T02:53:39.772Z,15.2
2023-02-06T02:58:39.486Z,14.4
2023-02-06T03:03:39.131Z,17.2
2023-02-06T03:08:40.854Z,13.9
2023-02-06T03:13:38.524Z,12.1
2023-02-06T03:18:38.285Z,11.3
2023-02-06T03:23:38.058Z,11.1
2023-02-06T03:28:37.660Z,11.8
2023-02-06T03:33:39.345Z,13.0
2023-02-06T03:38:37.085Z,10.8
2023-02-06T03:43:36.849Z,11.5
2023-02-06T03:48:36.523Z,10.2
2023-02-06T03:53:36.223Z,12.0
2023-02-06T03:58:35.981Z,11.6
2023-02-06T04:03:35.802Z,10.0
2023-02-06T04:08:35.427Z,8.3
2023-02-06T04:13:35.163Z,9.5
2023-02-06T04:18:34.899Z,7.7
2023-02-06T04:23:34.619Z,8.7
2023-02-06T04:28:34.377Z,7.9
2023-02-06T04:33:34.054Z,13.0
2023-02-06T04:43:33.529Z,12.9
2023-02-06T04:48:33.275Z,10.5
2023-02-06T04:53:34.967Z,11.9
2023-02-06T04:58:32.721Z,11.1
2023-02-06T05:03:32.435Z,10.9
2023-02-06T05:08:32.165Z,9.3
2023-02-06T05:13:31.865Z,10.1
2023-02-06T05:18:31.910Z,14.0
2023-02-06T05:23:33.315Z,15.4
2023-02-06T05:28:31.119Z,15.9
2023-02-06T05:33:30.818Z,13.4
2023-02-06T05:38:30.600Z,11.6
2023-02-06T05:43:30.308Z,10.1
2023-02-06T05:48:30.094Z,12.5
2023-02-06T05:53:32.280Z,12.4
2023-02-06T05:58:29.518Z,14.3
2023-02-06T06:03:33.340Z,9.0
2023-02-06T06:10:32.921Z,10.0
2023-02-06T06:13:28.694Z,8.9
2023-02-06T06:23:28.095Z,7.0
2023-02-06T06:28:27.831Z,7.1
2023-02-06T06:33:27.649Z,7.7
2023-02-06T06:36:19.997Z,7.7
2023-02-06T06:36:20.185Z,7.7
2023-02-06T06:38:27.299Z,12.0
2023-02-06T06:43:26.953Z,20.4
2023-02-06T06:48:26.649Z,15.6
2023-02-06T06:53:26.396Z,16.6
2023-02-06T06:58:26.035Z,15.6
2023-02-06T07:03:25.788Z,13.0
2023-02-06T07:08:25.428Z,12.7
2023-02-06T07:13:25.161Z,12.8
2023-02-06T07:18:24.811Z,13.4
2023-02-06T07:23:24.530Z,14.5
2023-02-06T07:28:24.152Z,13.1
2023-02-06T07:33:23.843Z,12.4
2023-02-06T07:38:23.510Z,13.7
2023-02-06T07:43:23.219Z,13.3
2023-02-06T07:48:22.887Z,12.4
2023-02-06T07:53:22.529Z,10.8
2023-02-06T07:58:22.174Z,11.7
2023-02-06T08:08:21.469Z,11.1
2023-02-06T08:13:21.127Z,10.2
2023-02-06T08:18:20.834Z,11.0
2023-02-06T08:23:20.934Z,9.0
2023-02-06T08:28:20.223Z,10.2
2023-02-06T08:33:19.884Z,11.3
2023-02-06T08:38:19.540Z,9.7
2023-02-06T08:43:19.233Z,9.2
2023-02-06T08:48:18.873Z,9.5
2023-02-06T08:53:18.602Z,9.2
2023-02-06T08:58:18.261Z,11.8
2023-02-06T09:03:17.978Z,10.8
2023-02-06T09:08:17.680Z,10.4
2023-02-06T09:13:17.400Z,9.3
2023-02-06T09:18:19.630Z,10.3
2023-02-06T09:23:16.866Z,10.9
2023-02-06T09:28:16.593Z,10.2
2023-02-06T09:33:16.286Z,7.9
2023-02-06T09:38:16.017Z,8.4
2023-02-06T09:43:15.752Z,8.7
2023-02-06T09:48:15.473Z,8.9
2023-02-06T09:53:15.258Z,7.6
2023-02-06T09:58:15.082Z,8.3
2023-02-06T10:03:14.775Z,8.6
2023-02-06T10:08:14.469Z,6.5
2023-02-06T10:13:14.235Z,8.9
2023-02-06T10:18:13.962Z,9.1
2023-02-06T10:23:13.815Z,7.9
2023-02-06T10:28:13.620Z,6.8
2023-02-06T10:33:24.865Z,8.2
2023-02-06T10:38:13.126Z,9.8
2023-02-06T10:43:12.897Z,10.9
2023-02-06T10:48:12.708Z,10.2
2023-02-06T10:53:12.554Z,9.5
2023-02-06T10:58:12.315Z,8.0
2023-02-06T11:03:12.136Z,8.7
2023-02-06T11:08:11.940Z,11.4
2023-02-06T11:13:11.801Z,7.8
2023-02-06T11:18:11.641Z,9.2
2023-02-06T11:23:11.548Z,11.1
2023-02-06T11:28:11.449Z,9.9
2023-02-06T11:33:11.467Z,8.6
2023-02-06T11:38:11.057Z,6.3
2023-02-06T11:43:10.977Z,4.6
2023-02-06T11:48:10.831Z,5.6
2023-02-06T11:53:10.712Z,7.3
2023-02-06T11:58:10.591Z,6.0
2023-02-06T12:03:10.472Z,5.2
2023-02-06T12:08:10.332Z,6.8
2023-02-06T12:13:10.233Z,7.6
2023-02-06T12:18:10.099Z,4.1
2023-02-06T12:23:10.030Z,4.9
2023-02-06T12:28:09.853Z,5.4
2023-02-06T12:33:09.930Z,4.4
2023-02-06T12:38:09.634Z,4.3
2023-02-06T12:43:09.579Z,3.3
2023-02-06T12:53:09.425Z,2.7
2023-02-06T12:58:09.319Z,4.2
2023-02-06T13:03:09.292Z,4.3
2023-02-06T13:08:09.160Z,3.8
2023-02-06T13:13:09.128Z,4.8
2023-02-06T13:18:09.015Z,3.9
2023-02-06T13:23:08.949Z,4.5
2023-02-06T13:28:12.902Z,4.9
2023-02-06T13:33:08.800Z,5.0
2023-02-06T13:38:08.730Z,4.6
2023-02-06T13:43:21.587Z,6.0
2023-02-06T13:48:08.550Z,4.1
2023-02-06T13:53:08.467Z,5.2
2023-02-06T13:58:08.429Z,5.3
2023-02-06T14:03:10.816Z,3.6
2023-02-06T14:08:08.250Z,4.8
2023-02-06T14:13:08.220Z,2.9
2023-02-06T14:18:08.151Z,4.7
2023-02-06T14:23:09.446Z,3.7
2023-02-06T14:28:08.090Z,3.2
2023-02-06T14:33:07.931Z,3.5
2023-02-06T14:38:07.883Z,2.9
2023-02-06T14:48:07.778Z,2.4
2023-02-06T14:53:09.701Z,2.0
2023-02-06T14:58:07.671Z,2.5
2023-02-06T15:03:07.589Z,3.8
2023-02-06T15:08:07.535Z,2.5
2023-02-06T15:13:07.436Z,2.0
2023-02-06T15:18:07.439Z,4.9
2023-02-06T15:23:16.998Z,4.5
2023-02-06T15:28:07.412Z,5.3
2023-02-06T15:33:07.215Z,3.8
2023-02-06T15:38:07.213Z,3.2
2023-02-06T15:43:09.168Z,3.5
2023-02-06T15:48:07.098Z,4.1
2023-02-06T15:53:07.023Z,5.0
2023-02-06T15:58:06.954Z,3.2
2023-02-06T16:03:06.880Z,4.0
2023-02-06T16:08:06.824Z,4.5
2023-02-06T16:13:06.709Z,4.2
2023-02-06T16:23:06.509Z,2.7
2023-02-06T16:28:06.521Z,2.9
2023-02-06T16:33:06.318Z,5.0
2023-02-06T16:38:06.192Z,4.7
2023-02-06T16:43:06.137Z,3.6
2023-02-06T16:53:05.806Z,3.4
2023-02-06T17:07:50.197Z,3.1
2023-02-06T17:08:05.819Z,3.5
2023-02-06T17:13:05.332Z,3.3
2023-02-06T17:18:05.331Z,3.6
2023-02-06T17:23:05.125Z,3.7
2023-02-06T17:28:04.935Z,3.9
2023-02-06T17:33:04.720Z,3.6
2023-02-06T17:38:04.551Z,7.0
2023-02-06T17:43:04.444Z,6.6
2023-02-06T17:48:04.233Z,5.4
2023-02-06T17:53:04.081Z,5.3
2023-02-06T17:58:03.902Z,5.5
2023-02-06T18:08:03.948Z,8.1
2023-02-06T18:13:03.317Z,19.0
2023-02-06T18:18:03.259Z,20.0
2023-02-06T18:23:02.960Z,13.9
2023-02-06T18:28:02.848Z,15.2
2023-02-06T18:38:02.292Z,11.9
2023-02-06T18:43:02.077Z,15.2
2023-02-06T18:48:01.894Z,12.3
2023-02-06T18:53:01.648Z,18.2
2023-02-06T18:58:01.463Z,17.2
2023-02-06T19:03:01.156Z,12.4
2023-02-06T19:08:00.962Z,11.0
2023-02-06T19:13:00.770Z,11.7
2023-02-06T19:18:00.542Z,14.3
2023-02-06T19:23:00.210Z,10.9
2023-02-06T19:28:00.170Z,13.9
2023-02-06T19:32:59.756Z,14.4
2023-02-06T19:37:59.497Z,17.3
2023-02-06T19:42:59.222Z,15.9
2023-02-06T19:47:59.222Z,18.0
2023-02-06T19:52:58.651Z,19.1
2023-02-06T19:57:58.388Z,22.8
2023-02-06T20:02:58.377Z,19.2
2023-02-06T20:07:57.833Z,23.0
2023-02-06T20:12:57.550Z,19.6
2023-02-06T20:17:57.256Z,20.0
2023-02-06T20:22:57.030Z,19.0
2023-02-06T20:27:56.788Z,21.6
2023-02-06T20:32:56.450Z,21.9
2023-02-06T20:37:56.158Z,29.5
2023-02-06T20:42:55.820Z,29.3
2023-02-06T20:47:55.595Z,32.1
2023-02-06T20:52:55.298Z,27.4
2023-02-06T20:57:55.011Z,21.0
2023-02-06T21:02:54.711Z,18.3
2023-02-06T21:07:57.631Z,16.4
2023-02-06T21:12:54.117Z,15.6
2023-02-06T21:17:53.844Z,19.6
2023-02-06T21:22:53.539Z,23.9
2023-02-06T21:27:55.311Z,24.9
2023-02-06T21:32:52.920Z,28.3
2023-02-06T21:37:52.575Z,30.0
2023-02-06T21:42:52.284Z,35.6
2023-02-06T21:47:51.910Z,40.1
2023-02-06T21:52:51.592Z,45.2
2023-02-06T21:57:51.269Z,27.2
2023-02-06T22:02:53.471Z,26.0
2023-02-06T22:07:50.648Z,32.0
2023-02-06T22:12:50.300Z,29.2
2023-02-06T22:17:49.996Z,35.0
2023-02-06T22:22:49.672Z,32.1
2023-02-06T22:27:49.526Z,45.2
2023-02-06T22:32:49.182Z,39.1
2023-02-06T22:37:48.841Z,48.3
2023-02-06T22:42:51.048Z,34.6
2023-02-06T22:47:48.195Z,25.3
2023-02-06T22:52:47.925Z,48.3
2023-02-06T22:57:47.620Z,38.6
2023-02-06T23:02:47.329Z,40.9
2023-02-06T23:07:47.000Z,33.3
2023-02-06T23:12:46.703Z,33.7
2023-02-06T23:17:46.400Z,33.6
2023-02-06T23:22:46.085Z,31.5
2023-02-06T23:27:45.814Z,34.8
2023-02-06T23:32:45.426Z,42.2
2023-02-06T23:37:45.058Z,40.2
2023-02-06T23:42:44.735Z,42.1
2023-02-06T23:49:13.413Z,38.5
2023-02-06T23:52:44.068Z,43.6
2023-02-06T23:57:43.750Z,41.4
